Aguilar, Colorado
Current Conditions -  °F | °C
As of 1:54 AM on Thursday 23 Oct 2014 (Local Time) from KTAD Reporting Station
Clear Clear  
Wind Chill: 44°   Ceiling: Unl
Heat Index: 47°   Visibility: 10mi
Dew Point: 38°   Wind: 6mph
Humidity: 71%   Direction: 270°W
Pressure: 30.17"   Gusts: NA
Location:  37.4°N, 104.65°W
Report Text: KTAD 230754Z AUTO 27005KT 10SM CLR 08/03 A3017 RMK AO2 SLP162 T00830033
Loading
Personal Weather Stations






























Interactive Weather Map
Tropical Storm Tracking
New forecast layout! Learn more

10-Day Weather Forecast

Advertisements
Track Severe Weather on mobile